createdAt,value
2019-02-21T00:01:06.159Z,29.00
2019-02-21T00:03:34.153Z,28.13
2019-02-21T00:06:02.132Z,29.43
2019-02-21T00:08:30.152Z,27.30
2019-02-21T00:10:58.168Z,27.87
2019-02-21T00:13:26.152Z,28.80
2019-02-21T00:15:54.118Z,26.60
2019-02-21T00:18:22.197Z,27.50
2019-02-21T00:20:50.268Z,26.40
2019-02-21T00:23:18.256Z,28.73
2019-02-21T00:25:46.335Z,27.67
2019-02-21T00:28:14.276Z,28.00
2019-02-21T00:30:42.348Z,28.50
2019-02-21T00:33:10.824Z,28.63
2019-02-21T00:35:38.806Z,26.90
2019-02-21T00:38:06.755Z,27.93
2019-02-21T00:40:34.756Z,27.27
2019-02-21T00:43:02.723Z,29.10
2019-02-21T00:45:30.764Z,28.40
2019-02-21T00:47:58.692Z,29.07
2019-02-21T00:50:26.577Z,28.83
2019-02-21T00:52:54.506Z,28.33
2019-02-21T00:55:22.594Z,26.57
2019-02-21T00:57:50.604Z,28.07
2019-02-21T01:00:18.613Z,28.43
2019-02-21T01:02:46.663Z,28.43
2019-02-21T01:05:14.631Z,27.80
2019-02-21T01:07:42.609Z,27.87
2019-02-21T01:10:10.688Z,27.47
2019-02-21T01:12:38.639Z,28.57
2019-02-21T01:15:07.467Z,28.00
2019-02-21T01:17:35.527Z,28.87
2019-02-21T01:20:03.725Z,28.80
2019-02-21T01:22:31.789Z,29.20
2019-02-21T01:24:59.806Z,29.30
2019-02-21T01:27:27.890Z,28.20
2019-02-21T01:29:55.847Z,28.67
2019-02-21T01:32:23.834Z,29.13
2019-02-21T01:34:51.895Z,27.90
2019-02-21T01:37:19.881Z,27.43
2019-02-21T01:39:47.820Z,28.43
2019-02-21T01:42:16.103Z,28.80
2019-02-21T01:44:44.067Z,27.87
2019-02-21T01:47:12.045Z,29.77
2019-02-21T01:49:40.068Z,28.50
2019-02-21T01:52:08.004Z,28.20
2019-02-21T01:54:35.962Z,27.13
2019-02-21T01:57:03.990Z,29.30
2019-02-21T01:59:31.950Z,28.50
2019-02-21T02:01:59.960Z,29.33
2019-02-21T02:04:27.927Z,29.37
2019-02-21T02:06:56.022Z,27.60
2019-02-21T02:09:24.168Z,28.10
2019-02-21T02:11:52.160Z,29.20
2019-02-21T02:14:20.142Z,27.90
2019-02-21T02:16:48.239Z,28.07
2019-02-21T02:19:16.162Z,27.60
2019-02-21T02:21:44.237Z,27.60
2019-02-21T02:24:14.709Z,27.83
2019-02-21T02:26:42.000Z,28.60
2019-02-21T02:29:10.000Z,26.90
2019-02-21T02:31:38.045Z,26.90
2019-02-21T02:34:06.082Z,27.77
2019-02-21T02:36:34.092Z,27.50
2019-02-21T02:39:02.071Z,26.53
2019-02-21T02:41:30.037Z,27.63
2019-02-21T02:43:58.025Z,28.13
2019-02-21T02:46:26.080Z,28.37
2019-02-21T02:48:54.079Z,29.40
2019-02-21T02:51:21.999Z,26.00
2019-02-21T02:53:49.960Z,28.73
2019-02-21T02:56:17.961Z,28.60
2019-02-21T02:58:46.020Z,26.90
2019-02-21T03:01:13.987Z,26.57
2019-02-21T03:03:41.976Z,27.10
2019-02-21T03:06:10.026Z,26.73
2019-02-21T03:08:38.008Z,27.07
2019-02-21T03:11:05.966Z,26.47
2019-02-21T03:13:33.950Z,29.80
2019-02-21T03:16:01.901Z,27.80
2019-02-21T03:18:29.889Z,27.80
2019-02-21T03:20:58.247Z,27.30
2019-02-21T03:23:26.221Z,26.47
2019-02-21T03:25:54.181Z,28.63
2019-02-21T03:28:22.160Z,28.40
2019-02-21T03:30:50.135Z,26.47
2019-02-21T03:33:18.231Z,26.00
2019-02-21T03:35:46.277Z,27.03
2019-02-21T03:38:14.251Z,28.40
2019-02-21T03:40:42.319Z,29.90
2019-02-21T03:43:10.391Z,28.00
2019-02-21T03:45:38.453Z,28.03
2019-02-21T03:48:06.424Z,28.30
2019-02-21T03:50:34.542Z,28.30
2019-02-21T03:53:02.471Z,26.50
2019-02-21T03:55:30.436Z,25.63
2019-02-21T03:57:58.395Z,25.67
2019-02-21T04:00:26.783Z,25.93
2019-02-21T04:02:54.738Z,27.77
2019-02-21T04:05:22.704Z,25.70
2019-02-21T04:07:50.966Z,25.83
2019-02-21T04:10:18.960Z,25.70
2019-02-21T04:12:46.924Z,26.80
2019-02-21T04:15:14.904Z,24.63
2019-02-21T04:17:42.857Z,25.30
2019-02-21T04:20:10.835Z,25.50
2019-02-21T04:22:38.805Z,25.27
2019-02-21T04:25:06.803Z,23.07
2019-02-21T04:27:34.751Z,24.67
2019-02-21T04:30:02.701Z,24.30
2019-02-21T04:32:30.701Z,23.73
2019-02-21T04:34:58.752Z,24.10
2019-02-21T04:37:26.732Z,26.10
2019-02-21T04:39:54.676Z,24.60
2019-02-21T04:42:22.662Z,24.60
2019-02-21T04:44:50.617Z,25.40
2019-02-21T04:47:18.591Z,25.40
2019-02-21T04:49:46.510Z,26.20
2019-02-21T04:52:14.472Z,26.43
2019-02-21T04:54:42.410Z,25.80
2019-02-21T04:57:10.352Z,24.77
2019-02-21T04:59:38.398Z,26.10
2019-02-21T05:02:06.307Z,27.70
2019-02-21T05:04:34.270Z,26.70
2019-02-21T05:07:02.253Z,25.50
2019-02-21T05:09:30.216Z,27.13
2019-02-21T05:11:58.210Z,26.73
2019-02-21T05:14:26.255Z,24.63
2019-02-21T05:16:54.225Z,26.23
2019-02-21T05:19:22.202Z,27.00
2019-02-21T05:21:50.168Z,26.47
2019-02-21T05:24:18.137Z,26.77
2019-02-21T05:26:50.123Z,24.73
2019-02-21T05:29:18.597Z,26.17
2019-02-21T05:32:08.594Z,26.17
2019-02-21T05:34:53.836Z,25.70
2019-02-21T05:37:58.917Z,27.47
2019-02-21T05:40:51.804Z,25.80
2019-02-21T05:43:33.911Z,25.10
2019-02-21T05:46:27.218Z,27.43
2019-02-21T05:49:13.275Z,25.33
2019-02-21T05:52:12.883Z,27.97
2019-02-21T05:54:55.566Z,56.57
2019-02-21T05:57:45.279Z,33.27
2019-02-21T06:00:36.876Z,34.07
2019-02-21T06:03:23.127Z,32.37
2019-02-21T06:06:13.047Z,26.90
2019-02-21T06:09:03.321Z,26.53
2019-02-21T06:11:47.822Z,26.90
2019-02-21T06:14:31.764Z,28.37
2019-02-21T06:17:24.729Z,27.60
2019-02-21T06:20:21.394Z,27.50
2019-02-21T06:22:56.508Z,27.27
2019-02-21T06:25:32.494Z,27.37
2019-02-21T06:28:07.731Z,27.27
2019-02-21T06:30:45.517Z,26.07
2019-02-21T06:33:13.504Z,25.77
2019-02-21T06:35:41.448Z,26.60
2019-02-21T06:38:09.437Z,27.50
2019-02-21T06:40:37.510Z,27.93
2019-02-21T06:43:05.576Z,27.30
2019-02-21T06:45:33.536Z,27.67
2019-02-21T06:48:01.492Z,25.80
2019-02-21T06:50:29.525Z,25.80
2019-02-21T06:52:57.400Z,26.07
2019-02-21T06:55:25.366Z,28.67
2019-02-21T06:57:53.315Z,24.67
2019-02-21T07:00:21.359Z,25.10
2019-02-21T07:02:49.306Z,25.57
2019-02-21T07:05:17.298Z,26.80
2019-02-21T07:07:45.265Z,23.50
2019-02-21T07:10:13.315Z,26.10
2019-02-21T07:12:41.325Z,26.57
2019-02-21T07:15:09.703Z,24.63
2019-02-21T07:17:48.480Z,27.03
2019-02-21T07:20:07.682Z,29.97
2019-02-21T07:22:36.148Z,28.93
2019-02-21T07:25:10.329Z,27.23
2019-02-21T07:27:38.230Z,29.30
2019-02-21T07:30:06.391Z,28.43
2019-02-21T07:32:34.361Z,30.90
2019-02-21T07:35:02.372Z,27.57
2019-02-21T07:37:30.413Z,27.53
2019-02-21T07:39:58.366Z,30.07
2019-02-21T07:42:26.351Z,30.07
2019-02-21T07:44:54.396Z,31.10
2019-02-21T07:47:22.524Z,29.60
2019-02-21T07:49:50.583Z,29.70
2019-02-21T07:52:18.595Z,29.07
2019-02-21T07:54:46.511Z,29.20
2019-02-21T07:57:14.497Z,28.50
2019-02-21T07:59:42.571Z,29.13
2019-02-21T08:02:11.045Z,29.53
2019-02-21T08:04:39.079Z,28.77
2019-02-21T08:07:07.044Z,30.17
2019-02-21T08:09:35.059Z,30.10
2019-02-21T08:12:03.076Z,29.10
2019-02-21T08:14:31.054Z,30.07
2019-02-21T08:16:59.097Z,28.27
2019-02-21T08:19:26.996Z,30.37
2019-02-21T08:21:54.981Z,30.33
2019-02-21T08:24:23.089Z,31.07
2019-02-21T08:26:51.021Z,29.30
2019-02-21T08:29:20.788Z,29.87
2019-02-21T08:31:48.714Z,28.70
2019-02-21T08:34:20.367Z,29.80
2019-02-21T08:36:48.444Z,29.97
2019-02-21T08:39:16.432Z,29.20
2019-02-21T08:41:44.460Z,30.10
2019-02-21T08:44:12.487Z,30.13
2019-02-21T08:46:40.513Z,31.10
2019-02-21T08:49:08.503Z,30.33
2019-02-21T08:51:36.748Z,33.03
2019-02-21T08:54:05.667Z,32.53
2019-02-21T08:56:35.574Z,29.80
2019-02-21T08:59:05.264Z,31.67
2019-02-21T09:01:33.357Z,31.37
2019-02-21T09:04:09.901Z,30.47
2019-02-21T09:06:31.160Z,30.33
2019-02-21T09:08:59.217Z,30.73
2019-02-21T09:11:27.178Z,30.20
2019-02-21T09:13:55.933Z,30.63
2019-02-21T09:16:24.016Z,29.90
2019-02-21T09:18:52.006Z,30.87
2019-02-21T09:21:20.029Z,30.13
2019-02-21T09:23:48.113Z,31.43
2019-02-21T09:26:16.108Z,31.50
2019-02-21T09:28:44.318Z,31.93
2019-02-21T09:31:12.391Z,30.57
2019-02-21T09:33:40.618Z,30.90
2019-02-21T09:36:08.585Z,31.07
2019-02-21T09:38:36.623Z,33.30
2019-02-21T09:41:04.656Z,32.83
2019-02-21T09:43:32.604Z,30.80
2019-02-21T09:46:00.591Z,32.97
2019-02-21T09:48:28.560Z,34.13
2019-02-21T09:50:56.541Z,34.90
2019-02-21T09:53:24.669Z,32.27
2019-02-21T09:55:53.285Z,32.63
2019-02-21T09:58:21.209Z,32.93
2019-02-21T10:00:49.216Z,32.57
2019-02-21T10:03:17.187Z,33.40
2019-02-21T10:05:45.159Z,33.10
2019-02-21T10:08:13.132Z,32.07
2019-02-21T10:10:41.889Z,32.73
2019-02-21T10:13:13.066Z,35.40
2019-02-21T10:15:40.118Z,33.80
2019-02-21T10:18:08.188Z,36.20
2019-02-21T10:20:36.291Z,33.27
2019-02-21T10:23:04.384Z,34.87
2019-02-21T10:25:32.301Z,34.60
2019-02-21T10:28:00.279Z,33.47
2019-02-21T10:30:28.344Z,34.90
2019-02-21T10:32:56.294Z,35.07
2019-02-21T10:35:24.377Z,35.30
2019-02-21T10:37:52.467Z,36.13
2019-02-21T10:40:20.518Z,35.40
2019-02-21T10:42:48.604Z,33.80
2019-02-21T10:45:17.171Z,34.80
2019-02-21T10:47:45.223Z,35.80
2019-02-21T10:50:14.574Z,34.87
2019-02-21T10:52:42.660Z,34.33
2019-02-21T10:55:10.764Z,34.73
2019-02-21T10:57:38.760Z,35.07
2019-02-21T11:00:09.816Z,36.40
2019-02-21T11:02:37.841Z,36.50
2019-02-21T11:05:06.302Z,35.80
2019-02-21T11:07:34.323Z,35.40
2019-02-21T11:10:02.435Z,36.17
2019-02-21T11:12:30.475Z,36.20
2019-02-21T11:14:58.436Z,36.90
2019-02-21T11:17:26.498Z,34.17
2019-02-21T11:19:54.458Z,34.50
2019-02-21T11:22:22.449Z,35.33
2019-02-21T11:24:50.531Z,34.03
2019-02-21T11:27:18.524Z,33.07
2019-02-21T11:29:46.542Z,34.20
2019-02-21T11:32:14.635Z,34.50
2019-02-21T11:34:42.714Z,32.17
2019-02-21T11:37:10.777Z,32.23
2019-02-21T11:39:38.837Z,31.70
2019-02-21T11:42:06.800Z,32.00
2019-02-21T11:44:34.991Z,33.07
2019-02-21T11:47:04.414Z,29.90
2019-02-21T11:49:32.470Z,31.13
2019-02-21T11:52:09.900Z,31.27
2019-02-21T11:54:30.185Z,31.00
2019-02-21T11:56:58.242Z,29.00
2019-02-21T11:59:26.179Z,30.37
2019-02-21T12:01:54.124Z,30.23
2019-02-21T12:04:24.375Z,30.93
2019-02-21T12:06:51.754Z,31.10
2019-02-21T12:09:20.059Z,29.93
2019-02-21T12:11:48.072Z,27.10
2019-02-21T12:14:16.130Z,28.03
2019-02-21T12:16:44.220Z,26.83
2019-02-21T12:19:12.275Z,26.83
2019-02-21T12:21:40.331Z,27.53
2019-02-21T12:24:08.472Z,28.33
2019-02-21T12:26:36.530Z,27.10
2019-02-21T12:29:04.575Z,25.40
2019-02-21T12:31:32.597Z,26.90
2019-02-21T12:34:00.637Z,27.23
2019-02-21T12:36:28.807Z,25.43
2019-02-21T12:38:56.832Z,25.53
2019-02-21T12:41:24.962Z,24.53
2019-02-21T12:43:53.029Z,25.10
2019-02-21T12:46:21.156Z,24.03
2019-02-21T12:48:49.161Z,25.90
2019-02-21T12:51:17.242Z,28.00
2019-02-21T12:53:45.325Z,28.00
2019-02-21T12:56:13.233Z,25.93
2019-02-21T12:58:41.286Z,25.17
2019-02-21T13:01:09.281Z,24.47
2019-02-21T13:03:37.343Z,26.17
2019-02-21T13:06:05.319Z,25.87
2019-02-21T13:08:33.312Z,24.50
2019-02-21T13:11:01.393Z,23.27
2019-02-21T13:13:29.506Z,25.30
2019-02-21T13:15:57.424Z,25.97
2019-02-21T13:18:25.495Z,25.20
2019-02-21T13:20:53.594Z,25.30
2019-02-21T13:23:21.535Z,25.67
2019-02-21T13:25:49.607Z,23.43
2019-02-21T13:28:17.914Z,24.30
2019-02-21T13:30:45.929Z,21.40
2019-02-21T13:33:14.185Z,22.53
2019-02-21T13:35:52.072Z,21.77
2019-02-21T13:38:11.878Z,22.80
2019-02-21T13:40:39.991Z,22.50
2019-02-21T13:43:07.928Z,25.63
2019-02-21T13:45:35.955Z,21.03
2019-02-21T13:48:03.992Z,22.90
2019-02-21T13:50:32.057Z,20.70
2019-02-21T13:53:00.113Z,18.73
2019-02-21T13:55:28.113Z,16.90
2019-02-21T13:57:56.070Z,19.20
2019-02-21T14:00:24.128Z,20.00
2019-02-21T14:02:52.201Z,20.60
2019-02-21T14:05:20.159Z,19.17
2019-02-21T14:07:48.145Z,19.90
2019-02-21T14:10:16.347Z,18.60
2019-02-21T14:12:44.374Z,18.50
2019-02-21T14:15:13.291Z,17.90
2019-02-21T14:17:41.361Z,20.70
2019-02-21T14:20:09.845Z,23.27
2019-02-21T14:22:37.888Z,19.60
2019-02-21T14:25:05.981Z,18.87
2019-02-21T14:27:34.447Z,19.53
2019-02-21T14:30:03.480Z,21.30
2019-02-21T14:32:32.698Z,20.73
2019-02-21T14:35:00.848Z,20.83
2019-02-21T14:37:28.789Z,19.60
2019-02-21T14:39:56.838Z,20.07
2019-02-21T14:42:24.887Z,21.90
2019-02-21T14:44:52.945Z,21.17
2019-02-21T14:47:20.945Z,20.60
2019-02-21T14:49:48.931Z,20.47
2019-02-21T14:52:16.989Z,21.90
2019-02-21T14:54:44.929Z,20.20
2019-02-21T14:57:15.185Z,21.80
2019-02-21T14:59:44.627Z,21.03
2019-02-21T15:02:12.186Z,21.63
2019-02-21T15:04:40.284Z,19.90
2019-02-21T15:07:08.262Z,20.93
2019-02-21T15:09:36.218Z,20.27
2019-02-21T15:12:04.360Z,21.10
2019-02-21T15:14:33.604Z,21.57
2019-02-21T15:17:03.899Z,21.17
2019-02-21T15:19:33.330Z,20.47
2019-02-21T15:22:01.879Z,22.10
2019-02-21T15:24:31.009Z,21.80
2019-02-21T15:27:08.122Z,22.10
2019-02-21T15:29:30.812Z,19.90
2019-02-21T15:32:10.206Z,22.17
2019-02-21T15:34:30.230Z,21.07
2019-02-21T15:36:59.260Z,21.20
2019-02-21T15:39:28.190Z,21.33
2019-02-21T15:41:57.268Z,21.17
2019-02-21T15:44:25.953Z,20.20
2019-02-21T15:46:54.811Z,19.53
2019-02-21T15:49:25.092Z,21.13
2019-02-21T15:51:53.995Z,21.17
2019-02-21T15:54:22.950Z,20.20
2019-02-21T15:56:51.953Z,21.20
2019-02-21T15:59:20.958Z,19.30
2019-02-21T16:01:50.314Z,19.97
2019-02-21T16:04:19.557Z,18.37
2019-02-21T16:06:51.625Z,18.90
2019-02-21T16:09:19.068Z,19.13
2019-02-21T16:11:48.109Z,20.40
2019-02-21T16:14:16.956Z,19.67
2019-02-21T16:16:45.622Z,21.93
2019-02-21T16:19:13.679Z,21.63
2019-02-21T16:21:41.807Z,22.70
2019-02-21T16:24:09.853Z,21.87
2019-02-21T16:26:37.867Z,20.50
2019-02-21T16:29:05.947Z,20.27
2019-02-21T16:31:33.981Z,21.10
2019-02-21T16:34:02.061Z,19.47
2019-02-21T16:36:30.105Z,20.07
2019-02-21T16:38:58.103Z,19.57
2019-02-21T16:41:35.786Z,19.93
2019-02-21T16:43:55.868Z,20.33
2019-02-21T16:46:23.884Z,20.07
2019-02-21T16:48:51.897Z,19.83
2019-02-21T16:51:22.142Z,19.50
2019-02-21T16:53:49.561Z,18.63
2019-02-21T16:56:17.539Z,18.33
2019-02-21T16:58:45.460Z,18.53
2019-02-21T17:01:13.379Z,18.00
2019-02-21T17:03:41.368Z,19.47
2019-02-21T17:06:09.312Z,19.00
2019-02-21T17:08:37.305Z,17.30
2019-02-21T17:11:05.267Z,17.70
2019-02-21T17:13:33.228Z,17.33
2019-02-21T17:16:01.577Z,19.40
2019-02-21T17:18:31.100Z,19.80
2019-02-21T17:21:00.421Z,20.13
2019-02-21T17:23:30.219Z,18.60
2019-02-21T17:25:58.593Z,19.80
2019-02-21T17:28:26.582Z,17.23
2019-02-21T17:30:54.552Z,17.77
2019-02-21T17:33:22.494Z,17.40
2019-02-21T17:35:50.491Z,18.03
2019-02-21T17:38:18.463Z,21.23
2019-02-21T17:40:46.436Z,24.37
2019-02-21T17:43:14.478Z,28.50
2019-02-21T17:45:42.475Z,20.60
2019-02-21T17:48:10.514Z,20.90
2019-02-21T17:50:38.535Z,20.40
2019-02-21T17:53:06.723Z,20.03
2019-02-21T17:55:34.671Z,18.90
2019-02-21T17:58:02.750Z,17.83
2019-02-21T18:00:34.569Z,18.47
2019-02-21T18:03:02.548Z,18.20
2019-02-21T18:05:30.507Z,18.87
2019-02-21T18:07:58.505Z,19.07
2019-02-21T18:10:26.444Z,18.70
2019-02-21T18:12:54.422Z,17.97
2019-02-21T18:15:22.421Z,18.10
2019-02-21T18:17:50.457Z,17.60
2019-02-21T18:20:18.450Z,22.17
2019-02-21T18:22:46.395Z,19.20
2019-02-21T18:25:16.161Z,18.97
2019-02-21T18:27:44.068Z,17.60
2019-02-21T18:30:12.779Z,17.50
2019-02-21T18:32:41.038Z,18.53
2019-02-21T18:35:09.108Z,26.10
2019-02-21T18:37:46.933Z,18.07
2019-02-21T18:40:16.878Z,14.53
2019-02-21T18:42:37.869Z,15.30
2019-02-21T18:45:06.206Z,13.40
2019-02-21T18:47:34.277Z,10.80
2019-02-21T18:50:03.478Z,10.30
2019-02-21T18:52:31.598Z,8.90
2019-02-21T18:54:59.660Z,10.10
2019-02-21T18:57:27.610Z,9.20
2019-02-21T18:59:55.838Z,9.17
2019-02-21T19:02:23.986Z,9.37
2019-02-21T19:04:52.880Z,9.60
2019-02-21T19:07:20.812Z,10.57
2019-02-21T19:09:48.779Z,9.70
2019-02-21T19:12:16.750Z,9.97
2019-02-21T19:14:44.818Z,8.97
2019-02-21T19:17:12.884Z,11.00
2019-02-21T19:19:40.897Z,9.47
2019-02-21T19:22:08.928Z,9.70
2019-02-21T19:24:37.122Z,9.80
2019-02-21T19:27:05.306Z,9.90
2019-02-21T19:29:33.430Z,10.53
2019-02-21T19:32:01.516Z,9.37
2019-02-21T19:34:29.650Z,10.23
2019-02-21T19:36:57.737Z,10.40
2019-02-21T19:39:25.829Z,8.73
2019-02-21T19:41:55.637Z,9.87
2019-02-21T19:44:24.578Z,10.10
2019-02-21T19:46:52.654Z,10.30
2019-02-21T19:49:20.641Z,11.87
2019-02-21T19:51:49.195Z,12.03
2019-02-21T19:54:17.290Z,11.63
2019-02-21T19:56:45.556Z,13.60
2019-02-21T19:59:13.637Z,11.83
2019-02-21T20:01:43.958Z,12.00
2019-02-21T20:04:13.576Z,11.43
2019-02-21T20:06:41.692Z,10.10
2019-02-21T20:09:11.315Z,10.70
2019-02-21T20:11:39.875Z,9.83
2019-02-21T20:14:07.980Z,10.47
2019-02-21T20:16:36.143Z,10.80
2019-02-21T20:19:04.285Z,12.00
2019-02-21T20:21:33.346Z,12.00
2019-02-21T20:24:02.668Z,11.27
2019-02-21T20:26:30.750Z,10.80
2019-02-21T20:28:58.913Z,11.63
2019-02-21T20:31:27.527Z,12.30
2019-02-21T20:33:55.745Z,11.43
2019-02-21T20:36:23.972Z,11.40
2019-02-21T20:38:52.177Z,11.40
2019-02-21T20:41:20.321Z,11.80
2019-02-21T20:43:48.404Z,12.40
2019-02-21T20:46:16.441Z,13.30
2019-02-21T20:48:44.629Z,12.13
2019-02-21T20:51:12.804Z,16.03
2019-02-21T20:53:40.938Z,13.63
2019-02-21T20:56:09.029Z,12.57
2019-02-21T20:58:37.101Z,13.17
2019-02-21T21:01:06.829Z,12.70
2019-02-21T21:03:34.864Z,11.90
2019-02-21T21:06:02.901Z,12.57
2019-02-21T21:08:30.999Z,11.77
2019-02-21T21:10:59.015Z,11.70
2019-02-21T21:13:26.978Z,12.43
2019-02-21T21:15:54.952Z,13.53
2019-02-21T21:18:22.957Z,12.63
2019-02-21T21:20:51.039Z,13.10
2019-02-21T21:23:19.080Z,14.50
2019-02-21T21:25:47.220Z,15.10
2019-02-21T21:28:15.341Z,15.07
2019-02-21T21:30:43.377Z,12.67
2019-02-21T21:33:11.451Z,16.67
2019-02-21T21:35:39.459Z,15.90
2019-02-21T21:38:07.383Z,15.50
2019-02-21T21:40:35.369Z,14.57
2019-02-21T21:43:03.435Z,14.80
2019-02-21T21:45:31.391Z,12.20
2019-02-21T21:47:59.367Z,11.67
2019-02-21T21:50:27.441Z,12.20
2019-02-21T21:52:55.428Z,11.17
2019-02-21T21:55:23.400Z,12.90
2019-02-21T21:57:51.381Z,11.90
2019-02-21T22:00:20.277Z,11.60
2019-02-21T22:02:48.272Z,12.30
2019-02-21T22:05:16.264Z,10.93
2019-02-21T22:07:44.320Z,10.70
2019-02-21T22:10:12.319Z,11.43
2019-02-21T22:12:40.308Z,12.30
2019-02-21T22:15:08.808Z,12.00
2019-02-21T22:17:36.843Z,11.57
2019-02-21T22:20:05.224Z,11.73
2019-02-21T22:22:33.281Z,12.50
2019-02-21T22:25:01.308Z,11.60
2019-02-21T22:27:29.341Z,10.93
2019-02-21T22:29:57.510Z,11.10
2019-02-21T22:32:25.457Z,11.80
2019-02-21T22:34:55.116Z,13.07
2019-02-21T22:37:24.166Z,15.07
2019-02-21T22:39:53.127Z,15.37
2019-02-21T22:42:22.350Z,14.33
2019-02-21T22:44:51.341Z,14.60
2019-02-21T22:47:20.028Z,14.67
2019-02-21T22:49:48.962Z,13.40
2019-02-21T22:52:17.200Z,13.87
2019-02-21T22:54:45.520Z,13.30
2019-02-21T22:57:13.555Z,14.50
2019-02-21T22:59:41.563Z,15.57
2019-02-21T23:02:09.508Z,13.53
2019-02-21T23:04:46.195Z,14.00
2019-02-21T23:07:32.148Z,15.50
2019-02-21T23:10:00.242Z,14.53
2019-02-21T23:12:28.312Z,14.37
2019-02-21T23:14:56.257Z,14.00
2019-02-21T23:17:24.311Z,14.23
2019-02-21T23:19:52.339Z,13.30
2019-02-21T23:22:20.404Z,14.43
2019-02-21T23:24:48.376Z,14.60
2019-02-21T23:27:16.304Z,13.93
2019-02-21T23:29:44.300Z,13.60
2019-02-21T23:32:12.262Z,13.37
2019-02-21T23:34:43.083Z,14.47
2019-02-21T23:37:11.070Z,13.20
2019-02-21T23:39:39.041Z,13.30
2019-02-21T23:42:07.046Z,14.63
2019-02-21T23:44:34.972Z,12.80
2019-02-21T23:47:02.957Z,13.40
2019-02-21T23:49:30.902Z,12.37
2019-02-21T23:51:58.890Z,12.87
2019-02-21T23:54:26.862Z,13.23
2019-02-21T23:56:55.005Z,12.80
2019-02-21T23:59:23.213Z,13.13
